Time;durP1;ratioP1;P1;durP2;ratioP2;P2;SDS_P1;SDS_P2;PMS_P1;PMS_P2;Temp;Humidity;BMP_temperature;BMP_pressure;BME280_temperature;BME280_humidity;BME280_pressure;Samples;Min_cycle;Max_cycle;Signal;HPM_P1;HPM_P2
2023/04/25 00:00:10;;;;;;;2.03;1.92;;;8.80;99.90;;;;;;5052915;28;20207;-78
2023/04/25 00:02:36;;;;;;;2.47;2.17;;;8.80;99.90;;;;;;5029082;28;20176;-77
2023/04/25 00:05:03;;;;;;;2.08;1.98;;;8.80;99.90;;;;;;5047728;28;20200;-78
2023/04/25 00:07:28;;;;;;;2.17;2.08;;;8.90;99.90;;;;;;5052533;28;20243;-77
2023/04/25 00:09:54;;;;;;;2.30;2.20;;;8.80;99.90;;;;;;5053163;28;20215;-78
2023/04/25 00:12:21;;;;;;;2.10;1.98;;;8.70;99.90;;;;;;5052525;28;20176;-78
2023/04/25 00:14:49;;;;;;;2.58;2.00;;;8.60;99.90;;;;;;5051706;28;20656;-76
2023/04/25 00:17:16;;;;;;;2.30;2.15;;;8.50;99.90;;;;;;5050718;28;20211;-76
2023/04/25 00:19:42;;;;;;;2.30;2.10;;;8.50;99.90;;;;;;5049465;28;20191;-77
2023/04/25 00:22:08;;;;;;;2.30;2.20;;;8.50;99.90;;;;;;5037533;28;20628;-79
2023/04/25 00:24:33;;;;;;;2.58;2.40;;;8.40;99.90;;;;;;5056490;28;20247;-77
2023/04/25 00:26:59;;;;;;;2.10;2.00;;;8.40;99.90;;;;;;5053017;28;20215;-77
2023/04/25 00:29:24;;;;;;;2.42;2.33;;;8.40;99.90;;;;;;5061982;28;20184;-77
2023/04/25 00:31:50;;;;;;;2.53;2.33;;;8.50;99.90;;;;;;5051791;28;20678;-77
2023/04/25 00:34:15;;;;;;;2.65;2.33;;;8.50;99.90;;;;;;5049384;28;20558;-75
2023/04/25 00:36:41;;;;;;;2.55;2.45;;;8.50;99.90;;;;;;5051709;28;20304;-77
2023/04/25 00:39:07;;;;;;;2.63;2.53;;;8.70;99.90;;;;;;5049687;28;20550;-77
2023/04/25 00:41:33;;;;;;;2.35;2.25;;;8.60;99.90;;;;;;5045091;28;20220;-77
2023/04/25 00:44:00;;;;;;;2.60;2.40;;;8.60;99.90;;;;;;5050611;28;20734;-76
2023/04/25 00:46:26;;;;;;;3.20;2.45;;;8.60;99.90;;;;;;5053947;28;20192;-76
2023/04/25 00:48:51;;;;;;;3.05;2.50;;;8.50;99.90;;;;;;5047144;28;20180;-77
2023/04/25 00:51:20;;;;;;;5.43;2.78;;;8.50;99.90;;;;;;5052932;28;20186;-78
2023/04/25 00:53:48;;;;;;;3.20;3.00;;;8.40;99.90;;;;;;5043251;28;20184;-75
2023/04/25 00:56:14;;;;;;;3.00;2.80;;;8.50;99.90;;;;;;5047755;28;22076;-77
2023/04/25 00:58:41;;;;;;;3.95;3.60;;;8.40;99.90;;;;;;5054948;28;21715;-77
2023/04/25 01:01:06;;;;;;;2.58;2.38;;;8.40;99.90;;;;;;5051504;28;20176;-76
2023/04/25 01:03:35;;;;;;;3.10;2.90;;;8.30;99.90;;;;;;5050644;28;20294;-78
2023/04/25 01:06:01;;;;;;;3.15;2.85;;;8.30;99.90;;;;;;5037079;28;20626;-76
2023/04/25 01:08:27;;;;;;;3.15;2.90;;;8.20;99.90;;;;;;5051862;28;20172;-77
2023/04/25 01:10:53;;;;;;;2.80;2.70;;;8.10;99.90;;;;;;5051792;28;20229;-77
2023/04/25 01:13:18;;;;;;;3.53;2.80;;;8.10;99.90;;;;;;5059322;28;20214;-78
2023/04/25 01:15:44;;;;;;;2.58;2.47;;;8.00;99.90;;;;;;5050829;28;20223;-78
2023/04/25 01:18:10;;;;;;;3.25;2.88;;;7.90;99.90;;;;;;5062326;28;20670;-77
2023/04/25 01:20:38;;;;;;;2.70;2.60;;;7.90;99.90;;;;;;5046213;28;20203;-75
2023/04/25 01:23:04;;;;;;;2.70;2.50;;;7.90;99.90;;;;;;5033468;28;20718;-76
2023/04/25 01:25:33;;;;;;;2.80;2.60;;;7.90;99.90;;;;;;5051638;28;20287;-75
2023/04/25 01:27:59;;;;;;;2.85;2.65;;;7.90;99.90;;;;;;5045869;28;20271;-77
2023/04/25 01:30:26;;;;;;;2.70;2.50;;;7.90;99.90;;;;;;5053324;28;20256;-76
2023/04/25 01:32:54;;;;;;;2.58;2.47;;;7.90;99.90;;;;;;5055882;28;20172;-77
2023/04/25 01:35:20;;;;;;;2.90;2.70;;;7.90;99.90;;;;;;5060414;28;20565;-77
2023/04/25 01:37:45;;;;;;;2.92;2.83;;;7.90;99.90;;;;;;5058099;28;20180;-76
2023/04/25 01:40:12;;;;;;;2.72;2.53;;;7.90;99.90;;;;;;5051578;28;20690;-76
2023/04/25 01:42:40;;;;;;;2.65;2.47;;;7.90;99.90;;;;;;5042153;28;20263;-76
2023/04/25 01:45:07;;;;;;;2.55;2.40;;;7.90;99.90;;;;;;5044101;28;20204;-76
2023/04/25 01:47:34;;;;;;;2.40;2.30;;;7.90;99.90;;;;;;5052667;28;20176;-76
2023/04/25 01:50:01;;;;;;;2.97;2.78;;;8.00;99.90;;;;;;5051781;28;20559;-77
2023/04/25 01:52:27;;;;;;;2.83;2.63;;;8.00;99.90;;;;;;5044847;28;20212;-74
2023/04/25 01:54:53;;;;;;;2.88;2.70;;;8.10;99.90;;;;;;5052433;28;20697;-77
2023/04/25 01:57:19;;;;;;;3.03;2.83;;;8.20;99.90;;;;;;5053745;28;20650;-77
2023/04/25 01:59:46;;;;;;;3.00;2.40;;;8.30;99.90;;;;;;5052467;28;20198;-76
2023/04/25 02:02:11;;;;;;;3.03;2.80;;;8.20;99.90;;;;;;5049170;28;20273;-76
2023/04/25 02:04:37;;;;;;;3.22;3.00;;;8.30;99.90;;;;;;5049810;28;20223;-77
2023/04/25 02:07:03;;;;;;;2.67;2.53;;;8.30;99.90;;;;;;5049113;28;20566;-76
2023/04/25 02:09:29;;;;;;;3.45;3.22;;;8.30;99.90;;;;;;5048627;28;20187;-76
2023/04/25 02:11:55;;;;;;;2.85;2.65;;;8.30;99.90;;;;;;5054285;28;20199;-76
2023/04/25 02:14:20;;;;;;;2.78;2.53;;;8.30;99.90;;;;;;5056311;28;20218;-76
2023/04/25 02:16:46;;;;;;;3.10;2.90;;;8.20;99.90;;;;;;5042531;28;20200;-76
2023/04/25 02:19:12;;;;;;;3.33;3.03;;;8.30;99.90;;;;;;5051130;28;20639;-76
2023/04/25 02:21:37;;;;;;;2.45;2.35;;;8.30;99.90;;;;;;5052659;28;20195;-75
2023/04/25 02:24:04;;;;;;;3.25;2.95;;;8.30;99.90;;;;;;5059179;28;20200;-77
2023/04/25 02:26:30;;;;;;;3.30;3.05;;;8.30;99.90;;;;;;5052658;28;20196;-81
2023/04/25 02:28:57;;;;;;;3.92;3.03;;;8.30;99.90;;;;;;5045134;28;20203;-76
2023/04/25 02:31:22;;;;;;;2.83;2.70;;;8.20;99.90;;;;;;5059402;28;20282;-76
2023/04/25 02:33:48;;;;;;;2.70;2.38;;;8.20;99.90;;;;;;5052950;28;20335;-76
2023/04/25 02:36:14;;;;;;;2.83;2.47;;;8.10;99.90;;;;;;5031790;28;20248;-76
2023/04/25 02:38:40;;;;;;;3.03;2.78;;;8.10;99.90;;;;;;5048639;28;20223;-76
2023/04/25 02:41:06;;;;;;;3.10;2.90;;;8.00;99.90;;;;;;5049989;28;20233;-78
2023/04/25 02:43:31;;;;;;;2.92;2.72;;;8.00;99.90;;;;;;5048998;28;20261;-77
2023/04/25 02:45:57;;;;;;;3.05;2.85;;;8.00;99.90;;;;;;5047873;28;20287;-77
2023/04/25 02:48:22;;;;;;;2.78;2.58;;;8.00;99.90;;;;;;5048355;28;20643;-77
2023/04/25 02:50:48;;;;;;;4.28;2.75;;;8.10;99.90;;;;;;5057822;28;20177;-77
2023/04/25 02:53:14;;;;;;;3.30;3.10;;;8.10;99.90;;;;;;5045605;28;20167;-76
2023/04/25 02:55:39;;;;;;;3.72;3.42;;;8.10;99.90;;;;;;5047125;28;20848;-76
2023/04/25 02:58:05;;;;;;;3.20;3.00;;;8.20;99.90;;;;;;5032624;28;20168;-76
2023/04/25 03:00:31;;;;;;;3.20;2.60;;;8.30;99.90;;;;;;5049154;28;20180;-76
2023/04/25 03:02:56;;;;;;;2.72;2.63;;;8.30;99.90;;;;;;5029986;28;20184;-76
2023/04/25 03:05:22;;;;;;;3.00;2.80;;;8.30;99.90;;;;;;5048574;28;20269;-75
2023/04/25 03:07:48;;;;;;;3.50;3.20;;;8.30;99.90;;;;;;5049865;28;20180;-76
2023/04/25 03:10:13;;;;;;;2.67;2.58;;;8.30;99.90;;;;;;5055104;28;20220;-76
2023/04/25 03:12:39;;;;;;;3.00;2.80;;;8.30;99.90;;;;;;5055617;28;20540;-76
2023/04/25 03:15:05;;;;;;;5.85;2.90;;;8.30;99.90;;;;;;5054730;28;20270;-75
2023/04/25 03:17:31;;;;;;;2.72;2.53;;;8.30;99.90;;;;;;5024669;28;20195;-76
2023/04/25 03:19:57;;;;;;;3.00;2.90;;;8.20;99.90;;;;;;5039405;28;20196;-76
2023/04/25 03:22:23;;;;;;;3.17;2.67;;;8.20;99.90;;;;;;5051498;28;20558;-76
2023/04/25 03:24:50;;;;;;;3.00;2.80;;;8.20;99.90;;;;;;5048715;28;20614;-76
2023/04/25 03:27:16;;;;;;;3.00;2.80;;;8.20;99.90;;;;;;5049470;28;20221;-76
2023/04/25 03:29:41;;;;;;;3.13;2.85;;;8.10;99.90;;;;;;5030589;28;20274;-76
2023/04/25 03:32:07;;;;;;;3.05;2.85;;;8.10;99.90;;;;;;5032545;28;20177;-78
2023/04/25 03:34:32;;;;;;;2.92;2.72;;;8.00;99.90;;;;;;5051449;28;20221;-76
2023/04/25 03:36:58;;;;;;;3.28;3.08;;;8.00;99.90;;;;;;5050339;28;20207;-76
2023/04/25 03:39:23;;;;;;;2.50;2.40;;;8.00;99.90;;;;;;5053989;28;20184;-76
2023/04/25 03:41:49;;;;;;;3.97;2.60;;;8.10;99.90;;;;;;5051712;28;20258;-77
2023/04/25 03:44:15;;;;;;;3.08;2.88;;;8.10;99.90;;;;;;5045450;28;20231;-76
2023/04/25 03:46:40;;;;;;;3.20;2.53;;;8.10;99.90;;;;;;5049458;28;20213;-76
2023/04/25 03:49:06;;;;;;;3.92;2.95;;;8.10;99.90;;;;;;5052608;28;20210;-76
2023/04/25 03:51:32;;;;;;;2.90;2.70;;;8.10;99.90;;;;;;5051896;28;20169;-76
2023/04/25 03:53:57;;;;;;;2.88;2.67;;;8.10;99.90;;;;;;5050116;28;20210;-77
2023/04/25 03:56:23;;;;;;;2.83;2.63;;;8.10;99.90;;;;;;5022711;28;21090;-77
2023/04/25 03:58:49;;;;;;;2.72;2.60;;;8.10;99.90;;;;;;5038792;28;20242;-77
2023/04/25 04:01:14;;;;;;;2.60;2.35;;;8.00;99.90;;;;;;5044550;28;20184;-77
2023/04/25 04:03:40;;;;;;;2.85;2.67;;;7.90;99.90;;;;;;5048558;28;20254;-77
2023/04/25 04:06:07;;;;;;;3.60;2.50;;;7.90;99.90;;;;;;5043528;28;20254;-77
2023/04/25 04:08:33;;;;;;;4.32;2.60;;;8.00;99.90;;;;;;5045091;28;20659;-76
2023/04/25 04:10:59;;;;;;;2.55;2.35;;;8.10;99.90;;;;;;5042418;28;20222;-76
2023/04/25 04:13:28;;;;;;;2.97;2.35;;;8.20;99.90;;;;;;5050341;28;20207;-76
2023/04/25 04:15:55;;;;;;;3.03;2.83;;;8.20;99.90;;;;;;5048532;28;20231;-77
2023/04/25 04:18:21;;;;;;;2.88;2.58;;;8.10;99.90;;;;;;5025508;28;20176;-76
2023/04/25 04:20:46;;;;;;;3.00;2.80;;;8.10;99.90;;;;;;5045288;28;20195;-76
2023/04/25 04:23:12;;;;;;;2.90;2.70;;;8.00;99.90;;;;;;5033425;28;20605;-76
2023/04/25 04:25:39;;;;;;;2.78;2.58;;;8.10;99.90;;;;;;5055514;28;20237;-76
2023/04/25 04:28:05;;;;;;;2.78;2.58;;;8.10;99.90;;;;;;5030543;28;20192;-76
2023/04/25 04:30:33;;;;;;;2.88;2.67;;;8.10;99.90;;;;;;5028526;28;20183;-76
2023/04/25 04:32:58;;;;;;;2.75;2.65;;;8.10;99.90;;;;;;5031674;28;20214;-76
2023/04/25 04:35:24;;;;;;;2.90;2.60;;;8.20;99.90;;;;;;5047589;28;20196;-76
2023/04/25 04:37:50;;;;;;;5.45;2.78;;;8.20;99.90;;;;;;5053500;28;20626;-76
2023/04/25 04:40:17;;;;;;;2.83;2.60;;;8.30;99.90;;;;;;5045189;28;20175;-76
2023/04/25 04:42:45;;;;;;;3.05;2.85;;;8.40;99.90;;;;;;5043289;28;20544;-76
2023/04/25 04:45:12;;;;;;;2.75;2.55;;;8.50;99.90;;;;;;5045841;28;20204;-76
2023/04/25 04:47:39;;;;;;;4.05;2.90;;;8.50;99.90;;;;;;5039766;28;20388;-76
2023/04/25 04:50:08;;;;;;;3.20;2.47;;;8.60;99.90;;;;;;5046998;28;20173;-76
2023/04/25 04:52:34;;;;;;;2.50;2.40;;;8.60;99.90;;;;;;5033482;28;20177;-76
2023/04/25 04:55:00;;;;;;;3.03;2.80;;;8.60;99.90;;;;;;5049868;28;20188;-75
2023/04/25 04:57:26;;;;;;;3.30;3.10;;;8.50;99.90;;;;;;5049309;28;20548;-77
2023/04/25 04:59:52;;;;;;;3.63;3.33;;;8.30;99.90;;;;;;5046441;28;20237;-76
2023/04/25 05:02:17;;;;;;;3.65;3.45;;;8.30;99.90;;;;;;5033302;28;20214;-76
2023/04/25 05:04:43;;;;;;;3.78;3.47;;;8.20;99.90;;;;;;5032375;28;20763;-76
2023/04/25 05:07:08;;;;;;;3.42;3.17;;;8.20;99.90;;;;;;5046875;28;20311;-76
2023/04/25 05:09:34;;;;;;;4.03;3.72;;;8.10;99.90;;;;;;5042656;28;20210;-76
2023/04/25 05:12:00;;;;;;;4.25;3.70;;;8.10;99.90;;;;;;5046234;28;20275;-76
2023/04/25 05:14:26;;;;;;;4.00;3.70;;;8.00;99.90;;;;;;5045335;28;20853;-76
2023/04/25 05:16:52;;;;;;;4.18;3.60;;;7.90;99.90;;;;;;5044860;28;20239;-78
2023/04/25 05:19:18;;;;;;;4.28;3.88;;;7.90;99.90;;;;;;5048478;28;20602;-75
2023/04/25 05:21:43;;;;;;;5.68;3.50;;;7.90;99.90;;;;;;5052893;28;20572;-75
2023/04/25 05:24:09;;;;;;;5.07;4.25;;;7.90;99.90;;;;;;5054547;28;20208;-75
2023/04/25 05:26:35;;;;;;;4.25;3.70;;;7.90;99.90;;;;;;5047016;28;20569;-75
2023/04/25 05:29:00;;;;;;;4.45;4.03;;;7.90;99.90;;;;;;5045405;28;20805;-74
2023/04/25 05:31:26;;;;;;;3.85;3.40;;;7.90;99.90;;;;;;5042000;28;20199;-77
2023/04/25 05:33:52;;;;;;;3.72;3.42;;;7.90;99.90;;;;;;5041868;28;20212;-75
2023/04/25 05:36:19;;;;;;;3.65;3.38;;;8.00;99.90;;;;;;5048446;28;20211;-76
2023/04/25 05:38:45;;;;;;;3.80;3.47;;;8.10;99.90;;;;;;5047726;28;20545;-76
2023/04/25 05:41:11;;;;;;;3.78;3.47;;;8.20;99.90;;;;;;5050988;28;20185;-75
2023/04/25 05:43:36;;;;;;;4.25;3.50;;;8.40;99.90;;;;;;5050797;28;20316;-76
2023/04/25 05:46:02;;;;;;;3.85;3.55;;;8.50;99.90;;;;;;5049776;28;20231;-76
2023/04/25 05:48:27;;;;;;;4.15;3.65;;;8.70;99.90;;;;;;5049278;28;20172;-76
2023/04/25 05:50:53;;;;;;;3.80;3.38;;;8.80;99.90;;;;;;5055785;28;20317;-78
2023/04/25 05:53:20;;;;;;;4.25;3.80;;;9.00;99.90;;;;;;5054655;28;20199;-78
2023/04/25 05:55:46;;;;;;;4.00;3.70;;;9.10;99.90;;;;;;5048813;28;20200;-77
2023/04/25 05:58:12;;;;;;;4.22;3.22;;;9.30;99.90;;;;;;5052018;28;20208;-76
2023/04/25 06:00:38;;;;;;;3.50;3.20;;;9.50;99.90;;;;;;5050867;28;20188;-76
2023/04/25 06:03:03;;;;;;;4.07;3.38;;;9.70;99.90;;;;;;5051692;28;20577;-76
2023/04/25 06:05:29;;;;;;;3.90;3.10;;;9.90;99.90;;;;;;5058381;28;20638;-77
2023/04/25 06:07:55;;;;;;;4.32;3.50;;;10.10;99.90;;;;;;5053164;28;20186;-78
2023/04/25 06:10:22;;;;;;;3.65;3.35;;;10.20;99.90;;;;;;5045086;28;20199;-78
2023/04/25 06:12:48;;;;;;;2.83;2.63;;;10.40;99.90;;;;;;5042525;28;20179;-78
2023/04/25 06:15:13;;;;;;;3.45;2.88;;;10.60;99.90;;;;;;5053889;28;20200;-79
2023/04/25 06:17:39;;;;;;;3.03;2.83;;;10.70;99.90;;;;;;5034206;28;20310;-76
2023/04/25 06:20:05;;;;;;;3.90;3.03;;;10.80;99.90;;;;;;5043412;28;20188;-77
2023/04/25 06:22:31;;;;;;;3.50;2.70;;;10.80;99.90;;;;;;5040303;28;20306;-77
2023/04/25 06:24:58;;;;;;;2.65;2.47;;;10.80;99.90;;;;;;5048849;28;20610;-77
2023/04/25 06:27:24;;;;;;;2.55;2.38;;;10.70;99.90;;;;;;5051867;28;20180;-78
2023/04/25 06:29:50;;;;;;;3.00;2.80;;;10.70;99.90;;;;;;5044828;28;20243;-77
2023/04/25 06:32:15;;;;;;;3.70;2.63;;;10.60;99.90;;;;;;5034399;28;20171;-77
2023/04/25 06:34:41;;;;;;;2.25;2.15;;;10.60;99.90;;;;;;5048147;28;20535;-76
2023/04/25 06:37:06;;;;;;;2.83;2.63;;;10.60;99.90;;;;;;5050991;28;20291;-77
2023/04/25 06:39:32;;;;;;;2.40;2.30;;;10.60;99.90;;;;;;5046418;28;20180;-76
2023/04/25 06:41:57;;;;;;;2.88;2.58;;;10.60;99.90;;;;;;5036805;28;20694;-77
2023/04/25 06:44:23;;;;;;;2.78;2.38;;;10.50;99.90;;;;;;5041863;28;20644;-77
2023/04/25 06:46:49;;;;;;;2.50;2.40;;;10.60;99.90;;;;;;5048571;28;20295;-76
2023/04/25 06:49:15;;;;;;;2.70;2.50;;;10.60;99.90;;;;;;5039059;28;20172;-76
2023/04/25 06:51:41;;;;;;;2.42;2.30;;;10.60;99.90;;;;;;5045059;28;20222;-77
2023/04/25 06:54:06;;;;;;;2.78;2.53;;;10.80;99.90;;;;;;5048675;28;20207;-76
2023/04/25 06:56:32;;;;;;;3.17;2.45;;;11.20;99.90;;;;;;5053459;28;20231;-77
2023/04/25 06:58:58;;;;;;;2.78;2.47;;;11.70;99.90;;;;;;5045763;28;20180;-76
2023/04/25 07:01:23;;;;;;;3.00;2.55;;;12.00;99.90;;;;;;5048209;28;20206;-76
2023/04/25 07:03:49;;;;;;;2.60;2.50;;;12.20;99.90;;;;;;5043596;28;20208;-77
2023/04/25 07:06:15;;;;;;;4.05;2.50;;;12.20;99.90;;;;;;5034986;28;20833;-77
2023/04/25 07:08:40;;;;;;;2.50;2.30;;;12.40;99.90;;;;;;5033729;28;20176;-77
2023/04/25 07:11:06;;;;;;;4.53;2.17;;;12.40;99.90;;;;;;5049018;28;20176;-76
2023/04/25 07:13:32;;;;;;;2.60;2.35;;;12.50;99.90;;;;;;5052954;28;20176;-76
2023/04/25 07:15:57;;;;;;;2.65;2.47;;;12.50;99.90;;;;;;5046147;28;20196;-77
2023/04/25 07:18:23;;;;;;;2.83;2.63;;;12.50;99.90;;;;;;5051755;28;20169;-77
2023/04/25 07:20:49;;;;;;;2.50;2.40;;;12.40;99.90;;;;;;5044763;28;20216;-77
2023/04/25 07:23:15;;;;;;;2.65;2.42;;;12.40;99.90;;;;;;5046722;28;20191;-77
2023/04/25 07:25:40;;;;;;;2.70;2.50;;;12.10;99.90;;;;;;5048754;28;20204;-77
2023/04/25 07:28:06;;;;;;;2.40;2.20;;;12.10;99.90;;;;;;5060067;28;20186;-77
2023/04/25 07:30:32;;;;;;;3.72;2.97;;;12.50;99.90;;;;;;5049662;28;20172;-76
2023/04/25 07:32:57;;;;;;;2.47;2.28;;;12.60;99.90;;;;;;5043636;28;20184;-76
2023/04/25 07:35:23;;;;;;;2.45;2.35;;;12.80;99.90;;;;;;5046096;28;20700;-76
2023/04/25 07:37:59;;;;;;;2.58;2.15;;;12.90;99.90;;;;;;5054353;28;20714;-77
2023/04/25 07:40:24;;;;;;;1.77;1.70;;;13.00;99.90;;;;;;5055741;28;20175;-77
2023/04/25 07:42:50;;;;;;;2.92;2.30;;;13.20;99.90;;;;;;5046108;28;20202;-76
2023/04/25 07:45:18;;;;;;;2.55;2.35;;;13.60;99.90;;;;;;5052104;28;20253;-77
2023/04/25 07:47:44;;;;;;;2.72;2.53;;;13.80;99.80;;;;;;5025220;28;20270;-77
2023/04/25 07:50:10;;;;;;;2.42;2.22;;;13.80;98.90;;;;;;5044589;28;20211;-77
2023/04/25 07:52:36;;;;;;;2.53;2.28;;;13.70;99.60;;;;;;5046702;28;20243;-77
2023/04/25 07:55:02;;;;;;;2.90;2.58;;;13.60;99.60;;;;;;5052055;28;20648;-77
2023/04/25 07:57:29;;;;;;;3.13;2.92;;;13.40;99.90;;;;;;5056337;28;20168;-77
2023/04/25 07:59:55;;;;;;;2.58;2.38;;;13.20;99.40;;;;;;5048570;28;20191;-76
2023/04/25 08:02:20;;;;;;;2.30;2.10;;;13.30;99.90;;;;;;5044429;28;20568;-76
2023/04/25 08:04:46;;;;;;;2.65;2.55;;;13.70;97.70;;;;;;5051803;28;20259;-78
2023/04/25 08:07:12;;;;;;;3.25;2.33;;;13.40;97.40;;;;;;5031850;28;20215;-76
2023/04/25 08:09:37;;;;;;;2.38;2.28;;;12.90;99.60;;;;;;5050852;28;20172;-76
2023/04/25 08:12:03;;;;;;;2.38;2.25;;;13.10;98.30;;;;;;5048916;28;20182;-76
2023/04/25 08:14:35;;;;;;;2.40;2.30;;;13.10;99.90;;;;;;5047707;28;20219;-77
2023/04/25 08:17:02;;;;;;;2.42;2.13;;;13.30;97.80;;;;;;5047711;28;20207;-77
2023/04/25 08:19:29;;;;;;;2.22;2.03;;;13.30;98.90;;;;;;5054464;28;20183;-77
2023/04/25 08:21:56;;;;;;;2.33;2.20;;;13.30;97.90;;;;;;5047798;28;20291;-76
2023/04/25 08:24:21;;;;;;;2.13;1.98;;;13.20;98.20;;;;;;5047106;28;20218;-77
2023/04/25 08:26:47;;;;;;;2.22;2.10;;;13.10;97.50;;;;;;5050401;28;20203;-76
2023/04/25 08:29:13;;;;;;;2.13;2.03;;;13.10;97.30;;;;;;5054575;28;20198;-77
2023/04/25 08:31:38;;;;;;;2.10;2.00;;;13.30;96.60;;;;;;5038053;28;20172;-77
2023/04/25 08:34:04;;;;;;;3.00;2.22;;;13.70;96.20;;;;;;5053204;28;20215;-76
2023/04/25 08:36:31;;;;;;;4.47;2.10;;;13.90;95.00;;;;;;5063292;28;20195;-77
2023/04/25 08:38:57;;;;;;;2.47;2.25;;;13.90;95.70;;;;;;5036757;28;20667;-77
2023/04/25 08:41:23;;;;;;;2.38;2.17;;;13.90;95.10;;;;;;5055225;28;20175;-76
2023/04/25 08:43:49;;;;;;;2.03;1.92;;;13.90;96.30;;;;;;5038509;28;20676;-76
2023/04/25 08:46:18;;;;;;;2.10;2.00;;;14.30;93.60;;;;;;5051272;28;20195;-76
2023/04/25 08:48:45;;;;;;;2.15;2.05;;;14.70;93.10;;;;;;5052811;28;20188;-77
2023/04/25 08:51:18;;;;;;;2.03;1.92;;;14.40;93.20;;;;;;5054545;28;20172;-77
2023/04/25 08:53:46;;;;;;;2.10;2.00;;;14.20;92.70;;;;;;5053701;28;20184;-76
2023/04/25 08:56:16;;;;;;;2.13;2.03;;;13.70;93.10;;;;;;5054313;28;20777;-77
2023/04/25 08:58:43;;;;;;;2.42;2.22;;;13.60;95.00;;;;;;5051252;28;20353;-76
2023/04/25 09:01:09;;;;;;;2.15;1.90;;;13.90;93.50;;;;;;5052867;28;20241;-77
2023/04/25 09:03:35;;;;;;;2.00;1.90;;;14.30;94.00;;;;;;5036471;28;20184;-77
2023/04/25 09:06:01;;;;;;;2.28;2.17;;;14.50;92.30;;;;;;5053418;28;20222;-77
2023/04/25 09:08:27;;;;;;;3.25;2.47;;;14.70;93.10;;;;;;5057139;28;20184;-78
2023/04/25 09:10:53;;;;;;;2.08;1.98;;;14.90;91.90;;;;;;5052674;28;20309;-76
2023/04/25 09:13:26;;;;;;;2.00;1.90;;;14.70;92.40;;;;;;5055166;28;20713;-76
2023/04/25 09:15:54;;;;;;;2.25;2.08;;;14.90;92.00;;;;;;5051153;28;20282;-77
2023/04/25 09:18:29;;;;;;;1.40;1.40;;;15.10;93.80;;;;;;5049742;28;20179;-77
2023/04/25 09:21:07;;;;;;;1.70;1.60;;;15.30;92.00;;;;;;5052640;28;20200;-76
2023/04/25 09:23:46;;;;;;;2.63;1.67;;;14.80;93.00;;;;;;5030630;28;20176;-76
2023/04/25 09:26:17;;;;;;;1.40;1.40;;;15.80;92.90;;;;;;5049785;28;20193;-76
2023/04/25 09:28:43;;;;;;;1.48;1.48;;;16.40;91.40;;;;;;5048258;28;20184;-76
2023/04/25 09:31:11;;;;;;;2.47;1.90;;;16.00;92.10;;;;;;5053464;28;20233;-76
2023/04/25 09:33:37;;;;;;;2.05;1.95;;;16.10;91.60;;;;;;5046411;28;20189;-77
2023/04/25 09:36:06;;;;;;;2.72;2.53;;;15.60;92.90;;;;;;5029251;28;20215;-77
2023/04/25 09:38:40;;;;;;;2.28;2.15;;;15.20;93.00;;;;;;5046498;28;20178;-77
2023/04/25 09:41:07;;;;;;;2.38;2.28;;;14.30;94.30;;;;;;5050041;28;20210;-77
2023/04/25 09:43:32;;;;;;;1.98;1.88;;;14.60;94.40;;;;;;5042190;28;20234;-77
2023/04/25 09:46:00;;;;;;;1.30;1.30;;;16.80;92.30;;;;;;5053862;28;20200;-77
2023/04/25 09:48:27;;;;;;;1.35;1.35;;;18.20;84.10;;;;;;5048497;28;20670;-77
2023/04/25 09:51:10;;;;;;;1.30;1.30;;;19.50;80.80;;;;;;5033873;28;20183;-76
2023/04/25 09:53:37;;;;;;;1.35;1.35;;;20.40;79.20;;;;;;5052028;28;20176;-77
2023/04/25 09:56:08;;;;;;;2.30;2.20;;;20.40;77.50;;;;;;5051864;28;20203;-77
2023/04/25 09:58:35;;;;;;;2.35;2.15;;;17.70;86.40;;;;;;5041175;28;20171;-77
2023/04/25 10:01:05;;;;;;;2.22;2.13;;;15.90;92.00;;;;;;5048500;28;20196;-76
2023/04/25 10:03:34;;;;;;;2.20;2.10;;;15.40;94.20;;;;;;5051543;28;20588;-78
2023/04/25 10:06:02;;;;;;;2.00;1.90;;;14.80;92.80;;;;;;5038242;28;20249;-77
2023/04/25 10:08:32;;;;;;;2.03;1.92;;;14.70;93.10;;;;;;5049369;28;20255;-77
2023/04/25 10:11:02;;;;;;;2.47;2.38;;;15.00;94.40;;;;;;5050582;28;20184;-77
2023/04/25 10:13:32;;;;;;;2.08;1.98;;;16.80;89.80;;;;;;5060901;28;20171;-77
2023/04/25 10:16:00;;;;;;;1.90;1.80;;;16.80;87.80;;;;;;5060280;28;20597;-77
2023/04/25 10:18:27;;;;;;;1.85;1.75;;;16.30;88.30;;;;;;5059509;28;20176;-78
2023/04/25 10:21:04;;;;;;;1.75;1.70;;;16.20;90.00;;;;;;5047542;28;20207;-77
2023/04/25 10:23:31;;;;;;;2.60;2.22;;;16.80;89.20;;;;;;5052959;28;20643;-77
2023/04/25 10:25:58;;;;;;;1.98;1.88;;;18.20;84.80;;;;;;5054405;28;20199;-77
2023/04/25 10:28:24;;;;;;;1.65;1.55;;;20.00;80.30;;;;;;5045872;28;20247;-76
2023/04/25 10:31:00;;;;;;;1.50;1.50;;;20.00;74.30;;;;;;5053634;28;20180;-77
2023/04/25 10:33:35;;;;;;;2.45;2.35;;;18.90;76.20;;;;;;5053776;28;20170;-77
2023/04/25 10:36:17;;;;;;;4.25;2.60;;;16.70;83.70;;;;;;5056513;28;20195;-77
2023/04/25 10:38:45;;;;;;;3.28;2.67;;;14.80;90.40;;;;;;5049483;28;20180;-77
2023/04/25 10:41:12;;;;;;;3.35;3.05;;;13.80;92.60;;;;;;5047108;28;20180;-77
2023/04/25 10:43:41;;;;;;;3.10;2.90;;;13.20;95.70;;;;;;5043392;28;20183;-77
2023/04/25 10:46:18;;;;;;;3.10;2.85;;;12.90;96.70;;;;;;5051189;28;20250;-76
2023/04/25 10:48:47;;;;;;;2.90;2.70;;;13.20;97.20;;;;;;5050657;28;20258;-78
2023/04/25 10:51:25;;;;;;;2.97;2.78;;;13.40;97.00;;;;;;5052212;28;20188;-78
2023/04/25 10:54:04;;;;;;;3.88;2.92;;;13.90;96.20;;;;;;5047308;28;20180;-77
2023/04/25 10:56:32;;;;;;;3.40;3.17;;;14.40;96.10;;;;;;5048270;28;20195;-77
2023/04/25 10:59:13;;;;;;;2.70;2.50;;;18.00;91.60;;;;;;5046565;28;20194;-77
2023/04/25 11:01:46;;;;;;;2.70;2.60;;;20.50;84.80;;;;;;5056957;28;20233;-78
2023/04/25 11:04:28;;;;;;;2.80;2.60;;;21.90;77.70;;;;;;5051806;28;20263;-77
2023/04/25 11:07:06;;;;;;;2.60;2.40;;;22.30;71.60;;;;;;5048029;28;20200;-77
2023/04/25 11:09:38;;;;;;;2.58;2.38;;;20.80;74.60;;;;;;5051388;28;20172;-77
2023/04/25 11:12:05;;;;;;;2.40;2.28;;;18.60;76.60;;;;;;5048481;28;20184;-78
2023/04/25 11:14:30;;;;;;;3.83;1.80;;;17.40;80.80;;;;;;5045526;28;20179;-78
2023/04/25 11:16:57;;;;;;;1.77;1.67;;;17.00;79.10;;;;;;5050242;28;20262;-77
2023/04/25 11:19:24;;;;;;;1.23;1.23;;;16.50;82.70;;;;;;5049311;28;20216;-77
2023/04/25 11:21:50;;;;;;;1.33;1.33;;;15.90;81.70;;;;;;5049836;28;20226;-78
2023/04/25 11:24:19;;;;;;;2.08;1.80;;;14.40;83.80;;;;;;5049967;28;20238;-77
2023/04/25 11:26:50;;;;;;;1.90;1.80;;;13.60;85.50;;;;;;5048638;28;20206;-76
2023/04/25 11:29:15;;;;;;;1.70;1.60;;;13.70;86.90;;;;;;5054724;28;20260;-77
2023/04/25 11:31:45;;;;;;;1.05;1.05;;;14.10;84.40;;;;;;5051390;28;20615;-77
2023/04/25 11:34:11;;;;;;;1.58;1.23;;;14.70;83.60;;;;;;5050422;28;20176;-77
2023/04/25 11:36:38;;;;;;;1.80;1.70;;;14.50;85.50;;;;;;5045392;28;20200;-77
2023/04/25 11:39:05;;;;;;;1.73;1.63;;;14.00;86.60;;;;;;5044319;28;20195;-77
2023/04/25 11:41:31;;;;;;;1.55;1.40;;;16.20;86.60;;;;;;5052733;28;20179;-77
2023/04/25 11:43:57;;;;;;;1.33;1.20;;;19.60;72.30;;;;;;5044654;28;20212;-77
2023/04/25 11:46:22;;;;;;;1.20;1.20;;;22.20;66.90;;;;;;5047884;28;20203;-78
2023/04/25 11:48:50;;;;;;;1.80;1.70;;;22.70;63.30;;;;;;5048640;28;20724;-78
2023/04/25 11:51:15;;;;;;;1.20;1.20;;;23.50;61.40;;;;;;5049190;28;20650;-77
2023/04/25 11:53:44;;;;;;;1.52;1.45;;;22.30;57.50;;;;;;5050831;28;20190;-77
2023/04/25 11:56:11;;;;;;;1.55;1.45;;;20.10;60.50;;;;;;5045897;28;20200;-77
2023/04/25 11:59:05;;;;;;;2.35;1.70;;;21.70;64.20;;;;;;5051351;28;20183;-76
2023/04/25 12:01:33;;;;;;;1.48;1.48;;;22.20;56.80;;;;;;5049839;28;20253;-77
2023/04/25 12:04:10;;;;;;;1.60;1.50;;;21.90;58.10;;;;;;5043829;28;20290;-79
2023/04/25 12:06:39;;;;;;;1.55;1.45;;;21.10;57.50;;;;;;5053627;28;20219;-76
2023/04/25 12:09:08;;;;;;;2.00;1.30;;;21.90;56.20;;;;;;5037403;28;20674;-77
2023/04/25 12:11:44;;;;;;;2.25;1.40;;;21.90;54.50;;;;;;5051547;28;20191;-77
2023/04/25 12:14:10;;;;;;;1.67;1.67;;;20.20;57.80;;;;;;5029101;28;20524;-77
2023/04/25 12:16:46;;;;;;;1.52;1.42;;;21.30;56.80;;;;;;5046655;28;20204;-78
2023/04/25 12:19:16;;;;;;;1.50;1.40;;;22.00;55.90;;;;;;5039306;28;20195;-77
2023/04/25 12:21:43;;;;;;;1.45;1.35;;;21.90;54.50;;;;;;5046262;28;20690;-78
2023/04/25 12:24:12;;;;;;;1.60;1.50;;;21.20;55.40;;;;;;5043729;28;20230;-78
2023/04/25 12:26:47;;;;;;;1.58;1.52;;;20.80;55.70;;;;;;5042461;28;20667;-77
2023/04/25 12:29:23;;;;;;;1.75;1.67;;;20.30;57.10;;;;;;5043073;28;20184;-78
2023/04/25 12:31:51;;;;;;;1.63;1.52;;;20.10;57.60;;;;;;5042020;28;20188;-78
2023/04/25 12:34:17;;;;;;;1.92;1.77;;;18.70;59.80;;;;;;5048670;28;20688;-77
2023/04/25 12:36:43;;;;;;;1.48;1.40;;;17.90;62.60;;;;;;5036069;28;20200;-77
2023/04/25 12:39:08;;;;;;;3.28;1.52;;;17.50;62.90;;;;;;5044588;28;20178;-78
2023/04/25 12:41:34;;;;;;;2.05;1.90;;;16.60;64.40;;;;;;5045659;28;20180;-77
2023/04/25 12:44:00;;;;;;;2.20;1.73;;;16.80;64.60;;;;;;5046405;28;20196;-77
2023/04/25 12:46:25;;;;;;;1.60;1.50;;;16.70;65.90;;;;;;5047372;28;20234;-77
2023/04/25 12:48:51;;;;;;;1.95;1.83;;;16.40;65.80;;;;;;5044629;28;20183;-77
2023/04/25 12:51:16;;;;;;;1.60;1.50;;;17.10;63.80;;;;;;5044791;28;20794;-78